createdAt,value
2017-10-17T00:02:52.483Z,1013.6
2017-10-17T00:13:06.727Z,1013.6
2017-10-17T00:23:22.530Z,1013.6
2017-10-17T00:33:37.848Z,1013.6
2017-10-17T00:43:51.593Z,1013.5
2017-10-17T00:54:06.127Z,1013.5
2017-10-17T01:04:20.516Z,1013.5
2017-10-17T01:14:36.190Z,1013.5
2017-10-17T01:24:49.993Z,1013.6
2017-10-17T01:35:05.336Z,1013.6
2017-10-17T01:45:20.676Z,1013.6
2017-10-17T01:55:35.011Z,1013.6
2017-10-17T02:05:49.749Z,1013.6
2017-10-17T02:16:04.301Z,1013.7
2017-10-17T02:26:19.932Z,1013.7
2017-10-17T02:36:35.456Z,1013.8
2017-10-17T02:46:50.805Z,1013.8
2017-10-17T02:57:05.582Z,1013.8
2017-10-17T03:07:21.733Z,1013.8
2017-10-17T03:17:35.317Z,1013.9
2017-10-17T03:27:49.365Z,1014
2017-10-17T03:38:04.738Z,1014.1
2017-10-17T03:48:18.883Z,1014.1
2017-10-17T03:58:33.907Z,1014.2
2017-10-17T04:08:48.066Z,1014.3
2017-10-17T04:19:03.553Z,1014.4
2017-10-17T04:29:18.844Z,1014.4
2017-10-17T04:39:34.358Z,1014.5
2017-10-17T04:49:49.929Z,1014.5
2017-10-17T05:00:05.075Z,1014.7
2017-10-17T05:10:18.674Z,1014.7
2017-10-17T05:20:34.080Z,1014.6
2017-10-17T05:30:49.077Z,1014.7
2017-10-17T05:41:03.837Z,1014.7
2017-10-17T05:51:19.204Z,1014.7
2017-10-17T06:01:34.242Z,1014.8
2017-10-17T06:11:48.796Z,1014.9
2017-10-17T06:22:02.826Z,1015
2017-10-17T06:32:18.086Z,1015.1
2017-10-17T06:42:33.047Z,1015.1
2017-10-17T06:52:48.290Z,1015.2
2017-10-17T07:03:03.885Z,1015.1
2017-10-17T07:13:18.290Z,1015.2
2017-10-17T07:23:33.240Z,1015.2
2017-10-17T07:33:48.714Z,1015.2
2017-10-17T07:44:02.815Z,1015.2
2017-10-17T07:54:17.837Z,1015.3
2017-10-17T08:04:31.738Z,1015.3
2017-10-17T08:14:46.110Z,1015.4
2017-10-17T08:25:00.479Z,1015.3
2017-10-17T08:35:15.187Z,1015.3
2017-10-17T08:45:29.477Z,1015.2
2017-10-17T08:55:44.767Z,1015.2
2017-10-17T09:05:58.486Z,1015.1
2017-10-17T09:16:14.375Z,1015.2
2017-10-17T09:26:29.763Z,1015.4
2017-10-17T09:36:43.911Z,1015.3
2017-10-17T09:46:58.610Z,1015.3
2017-10-17T09:57:13.045Z,1015.3
2017-10-17T10:07:27.976Z,1015.3
2017-10-17T10:17:42.555Z,1015.3
2017-10-17T10:27:57.310Z,1015.3
2017-10-17T10:38:11.885Z,1015.2
2017-10-17T10:48:27.044Z,1015.1
2017-10-17T10:58:42.928Z,1015.2
2017-10-17T11:08:58.045Z,1015
2017-10-17T11:19:12.512Z,1014.9
2017-10-17T11:29:27.197Z,1014.8
2017-10-17T11:39:42.686Z,1014.8
2017-10-17T11:49:58.194Z,1014.7
2017-10-17T12:00:12.492Z,1014.5
2017-10-17T12:10:27.841Z,1014.4
2017-10-17T12:20:43.001Z,1014.2
2017-10-17T12:30:58.573Z,1014.1
2017-10-17T12:41:14.231Z,1014
2017-10-17T12:51:29.739Z,1013.9
2017-10-17T13:01:45.343Z,1013.8
2017-10-17T13:12:01.173Z,1013.5
2017-10-17T13:22:15.832Z,1013.4
2017-10-17T13:32:29.982Z,1013.4
2017-10-17T13:42:45.069Z,1013.3
2017-10-17T13:52:59.417Z,1013.2
2017-10-17T14:03:13.329Z,1013.2
2017-10-17T14:13:27.550Z,1013.1
2017-10-17T14:23:42.616Z,1013
2017-10-17T14:33:57.527Z,1012.9
2017-10-17T14:44:12.264Z,1012.9
2017-10-17T14:54:28.178Z,1012.8
2017-10-17T15:04:43.817Z,1012.6
2017-10-17T15:14:58.014Z,1012.5
2017-10-17T15:25:13.106Z,1012.5
2017-10-17T15:35:28.130Z,1012.4
2017-10-17T15:45:43.935Z,1012.4
2017-10-17T15:55:58.921Z,1012.3
2017-10-17T16:06:12.728Z,1012.2
2017-10-17T16:16:28.689Z,1012.2
2017-10-17T16:26:42.753Z,1012.2
2017-10-17T16:36:57.710Z,1012.3
2017-10-17T16:47:12.075Z,1012.3
2017-10-17T16:57:26.190Z,1012.3
2017-10-17T17:07:40.503Z,1012.2
2017-10-17T17:17:55.482Z,1012.3
2017-10-17T17:28:10.761Z,1012.2
2017-10-17T17:38:24.447Z,1012.2
2017-10-17T17:48:39.245Z,1012.2
2017-10-17T17:58:54.450Z,1012.1
2017-10-17T18:09:09.324Z,1012
2017-10-17T18:19:25.084Z,1012
2017-10-17T18:29:40.610Z,1011.9
2017-10-17T18:39:54.283Z,1011.9
2017-10-17T18:50:09.658Z,1011.8
2017-10-17T19:00:25.198Z,1011.8
2017-10-17T19:10:40.607Z,1011.7
2017-10-17T19:20:54.856Z,1011.4
2017-10-17T19:31:10.140Z,1011.3
2017-10-17T19:41:24.048Z,1011.3
2017-10-17T19:51:37.608Z,1011.4
2017-10-17T20:01:52.131Z,1011.5
2017-10-17T20:12:07.279Z,1011.6
2017-10-17T20:22:22.593Z,1011.6
2017-10-17T20:32:36.838Z,1011.5
2017-10-17T20:42:50.579Z,1011.4
2017-10-17T20:53:05.087Z,1011.4
2017-10-17T21:03:19.251Z,1011.3
2017-10-17T21:13:35.087Z,1011.3
2017-10-17T21:23:48.601Z,1011.1
2017-10-17T21:34:03.846Z,1011.1
2017-10-17T21:44:18.910Z,1011
2017-10-17T21:54:33.929Z,1010.9
2017-10-17T22:04:48.606Z,1010.9
2017-10-17T22:15:02.706Z,1010.7
2017-10-17T22:25:17.733Z,1010.5
2017-10-17T22:35:33.810Z,1010.5
2017-10-17T22:45:46.966Z,1010.5
2017-10-17T22:56:01.450Z,1010.6
2017-10-17T23:06:15.895Z,1010.4
2017-10-17T23:16:30.824Z,1010.3
2017-10-17T23:26:45.912Z,1010.3
2017-10-17T23:37:00.512Z,1010.3
2017-10-17T23:47:14.522Z,1010.3
2017-10-17T23:57:28.696Z,1010.4
